createdAt,value
2018-01-16T00:02:12.923Z,99405.43
2018-01-16T00:04:39.763Z,99412.76
2018-01-16T00:07:06.596Z,99412.17
2018-01-16T00:09:33.206Z,99419.47
2018-01-16T00:11:59.988Z,99428.13
2018-01-16T00:14:26.734Z,99415.50
2018-01-16T00:16:53.476Z,99414.17
2018-01-16T00:19:20.184Z,99417.17
2018-01-16T00:21:46.979Z,99430.81
2018-01-16T00:24:13.815Z,99425.25
2018-01-16T00:26:40.548Z,99431.55
2018-01-16T00:29:07.310Z,99419.30
2018-01-16T00:31:34.151Z,99417.63
2018-01-16T00:34:07.862Z,99406.03
2018-01-16T00:36:34.611Z,99413.67
2018-01-16T00:39:01.342Z,99405.71
2018-01-16T00:41:28.104Z,99389.27
2018-01-16T00:43:54.797Z,99395.66
2018-01-16T00:46:22.221Z,99392.91
2018-01-16T00:48:48.920Z,99383.50
2018-01-16T00:51:15.690Z,99369.28
2018-01-16T00:53:42.444Z,99373.53
2018-01-16T00:56:09.182Z,99374.52
2018-01-16T00:58:35.930Z,99367.13
2018-01-16T01:01:02.872Z,99370.30
2018-01-16T01:03:29.497Z,99367.22
2018-01-16T01:05:56.271Z,99358.91
2018-01-16T01:08:23.018Z,99357.84
2018-01-16T01:10:49.759Z,99354.44
2018-01-16T01:13:16.515Z,99352.20
2018-01-16T01:15:43.253Z,99336.20
2018-01-16T01:18:09.905Z,99344.00
2018-01-16T01:20:36.579Z,99332.98
2018-01-16T01:23:04.028Z,99331.50
2018-01-16T01:25:30.743Z,99332.91
2018-01-16T01:27:57.364Z,99342.61
2018-01-16T01:30:24.036Z,99334.89
2018-01-16T01:32:50.840Z,99341.70
2018-01-16T01:35:18.269Z,99334.81
2018-01-16T01:37:44.986Z,99331.09
2018-01-16T01:40:11.636Z,99330.45
2018-01-16T01:42:38.486Z,99326.95
2018-01-16T01:45:05.332Z,99329.14
2018-01-16T01:47:32.183Z,99320.06
2018-01-16T01:49:58.916Z,99316.34
2018-01-16T01:52:25.558Z,99313.88
2018-01-16T01:54:52.307Z,99312.37
2018-01-16T01:57:19.067Z,99309.08
2018-01-16T01:59:45.903Z,99299.79
2018-01-16T02:02:12.651Z,99299.79
2018-01-16T02:04:39.395Z,99302.53
2018-01-16T02:07:06.245Z,99305.27
2018-01-16T02:09:33.148Z,99306.98
2018-01-16T02:12:00.660Z,99300.35
2018-01-16T02:14:27.385Z,99297.70
2018-01-16T02:16:54.151Z,99298.39
2018-01-16T02:19:20.792Z,99281.14
2018-01-16T02:21:47.544Z,99284.36
2018-01-16T02:24:14.284Z,99281.23
2018-01-16T02:26:41.031Z,99274.59
2018-01-16T02:29:07.776Z,99280.14
2018-01-16T02:31:34.524Z,99272.69
2018-01-16T02:34:01.268Z,99272.69
2018-01-16T02:36:28.015Z,99273.50
2018-01-16T02:38:54.624Z,99270.55
2018-01-16T02:41:21.211Z,99264.17
2018-01-16T02:43:48.047Z,99264.32
2018-01-16T02:46:14.703Z,99260.20
2018-01-16T02:48:41.456Z,99266.31
2018-01-16T02:51:08.108Z,99264.10
2018-01-16T02:53:34.923Z,99265.00
2018-01-16T02:56:01.676Z,99257.30
2018-01-16T02:58:28.320Z,99262.27
2018-01-16T03:00:55.052Z,99261.59
2018-01-16T03:03:21.803Z,99263.44
2018-01-16T03:05:48.640Z,99266.09
2018-01-16T03:08:15.269Z,99267.25
2018-01-16T03:10:41.924Z,99270.89
2018-01-16T03:13:08.680Z,99267.25
2018-01-16T03:15:35.340Z,99269.52
2018-01-16T03:18:02.180Z,99265.46
2018-01-16T03:20:29.020Z,99262.20
2018-01-16T03:22:55.765Z,99258.31
2018-01-16T03:25:22.522Z,99250.62
2018-01-16T03:27:49.176Z,99252.50
2018-01-16T03:30:15.988Z,99251.34
2018-01-16T03:32:42.767Z,99246.13
2018-01-16T03:35:09.596Z,99237.27
2018-01-16T03:37:36.235Z,99232.63
2018-01-16T03:40:02.891Z,99229.72
2018-01-16T03:42:29.753Z,99230.91
2018-01-16T03:44:56.579Z,99230.48
2018-01-16T03:47:23.338Z,99233.22
2018-01-16T03:49:50.076Z,99229.81
2018-01-16T03:52:16.824Z,99237.86
2018-01-16T03:54:43.472Z,99227.08
2018-01-16T03:57:10.212Z,99224.37
2018-01-16T03:59:36.851Z,99237.55
2018-01-16T04:02:03.479Z,99229.61
2018-01-16T04:04:30.245Z,99225.55
2018-01-16T04:06:56.888Z,99222.55
2018-01-16T04:09:23.731Z,99223.72
2018-01-16T04:11:50.394Z,99215.92
2018-01-16T04:14:17.120Z,99220.72
2018-01-16T04:16:43.788Z,99221.31
2018-01-16T04:19:10.531Z,99215.50
2018-01-16T04:21:37.247Z,99216.19
2018-01-16T04:24:03.989Z,99210.38
2018-01-16T04:26:30.739Z,99204.34
2018-01-16T04:28:57.387Z,99194.14
2018-01-16T04:31:24.134Z,99202.95
2018-01-16T04:33:50.876Z,99192.80
2018-01-16T04:36:17.487Z,99176.91
2018-01-16T04:38:44.167Z,99173.44
2018-01-16T04:41:10.925Z,99173.53
2018-01-16T04:43:39.323Z,99172.03
2018-01-16T04:46:06.200Z,99163.65
2018-01-16T04:48:33.616Z,99166.98
2018-01-16T04:51:00.367Z,99164.42
2018-01-16T04:53:27.196Z,99161.86
2018-01-16T04:55:53.946Z,99167.34
2018-01-16T04:58:20.691Z,99176.38
2018-01-16T05:00:47.355Z,99174.11
2018-01-16T05:03:13.982Z,99176.63
2018-01-16T05:05:40.728Z,99179.92
2018-01-16T05:08:07.472Z,99159.48
2018-01-16T05:10:34.221Z,99163.05
2018-01-16T05:13:00.872Z,99164.70
2018-01-16T05:15:27.733Z,99156.08
2018-01-16T05:17:54.418Z,99161.30
2018-01-16T05:20:21.203Z,99149.63
2018-01-16T05:22:47.888Z,99149.12
2018-01-16T05:25:15.404Z,99157.27
2018-01-16T05:27:42.165Z,99157.76
2018-01-16T05:30:08.920Z,99158.06
2018-01-16T05:32:35.612Z,99155.61
2018-01-16T05:35:02.288Z,99159.06
2018-01-16T05:37:28.958Z,99149.98
2018-01-16T05:39:55.695Z,99150.89
2018-01-16T05:42:22.466Z,99153.71
2018-01-16T05:44:50.088Z,99147.72
2018-01-16T05:47:16.873Z,99138.28
2018-01-16T05:49:43.719Z,99134.39
2018-01-16T05:52:10.461Z,99138.03
2018-01-16T05:54:37.274Z,99143.16
2018-01-16T05:57:03.956Z,99145.84
2018-01-16T05:59:30.763Z,99138.49
2018-01-16T06:01:57.515Z,99141.88
2018-01-16T06:04:24.270Z,99139.06
2018-01-16T06:06:51.028Z,99143.11
2018-01-16T06:09:17.867Z,99136.56
2018-01-16T06:11:44.600Z,99140.24
2018-01-16T06:14:11.350Z,99144.44
2018-01-16T06:16:38.105Z,99144.67
2018-01-16T06:19:04.835Z,99130.50
2018-01-16T06:21:31.579Z,99135.25
2018-01-16T06:23:58.332Z,99135.91
2018-01-16T06:26:25.179Z,99138.00
2018-01-16T06:28:51.925Z,99133.44
2018-01-16T06:31:18.576Z,99135.61
2018-01-16T06:33:45.210Z,99143.53
2018-01-16T06:36:11.831Z,99140.52
2018-01-16T06:38:38.454Z,99133.51
2018-01-16T06:41:05.196Z,99130.64
2018-01-16T06:43:31.880Z,99133.97
2018-01-16T06:45:58.627Z,99134.76
2018-01-16T06:48:25.388Z,99135.42
2018-01-16T06:50:52.220Z,99138.46
2018-01-16T06:53:18.864Z,99127.62
2018-01-16T06:55:45.607Z,99121.62
2018-01-16T06:58:12.359Z,99121.23
2018-01-16T07:00:39.112Z,99126.60
2018-01-16T07:03:05.756Z,99133.72
2018-01-16T07:05:32.391Z,99140.09
2018-01-16T07:07:59.236Z,99147.87
2018-01-16T07:10:25.897Z,99141.63
2018-01-16T07:12:52.728Z,99157.40
2018-01-16T07:15:19.379Z,99159.74
2018-01-16T07:17:46.124Z,99153.56
2018-01-16T07:20:12.868Z,99157.20
2018-01-16T07:22:39.586Z,99156.25
2018-01-16T07:25:06.290Z,99176.29
2018-01-16T07:27:33.007Z,99162.05
2018-01-16T07:30:08.236Z,99161.27
2018-01-16T07:32:34.997Z,99173.16
2018-01-16T07:35:01.780Z,99168.75
2018-01-16T07:37:29.213Z,99169.23
2018-01-16T07:39:56.044Z,99166.22
2018-01-16T07:42:22.696Z,99162.39
2018-01-16T07:44:49.422Z,99169.17
2018-01-16T07:47:16.056Z,99161.23
2018-01-16T07:49:42.929Z,99183.33
2018-01-16T07:52:09.771Z,99175.63
2018-01-16T07:54:36.536Z,99252.93
2018-01-16T07:57:03.261Z,99274.64
2018-01-16T07:59:29.922Z,99270.25
2018-01-16T08:01:56.651Z,99264.69
2018-01-16T08:04:23.310Z,99265.54
2018-01-16T08:06:50.762Z,99258.80
2018-01-16T08:09:17.403Z,99258.50
2018-01-16T08:11:44.758Z,99249.75
2018-01-16T08:14:11.448Z,99267.91
2018-01-16T08:16:38.864Z,99264.09
2018-01-16T08:19:05.516Z,99265.31
2018-01-16T08:21:32.254Z,99260.47
2018-01-16T08:23:59.095Z,99257.81
2018-01-16T08:26:25.853Z,99263.73
2018-01-16T08:28:52.471Z,99268.88
2018-01-16T08:31:19.244Z,99252.55
2018-01-16T08:33:45.982Z,99253.56
2018-01-16T08:36:12.676Z,99266.41
2018-01-16T08:38:40.096Z,99282.40
2018-01-16T08:41:06.735Z,99279.39
2018-01-16T08:43:33.668Z,99290.72
2018-01-16T08:46:00.358Z,99297.44
2018-01-16T08:48:27.175Z,99298.82
2018-01-16T08:50:54.071Z,99323.37
2018-01-16T08:53:21.551Z,99331.77
2018-01-16T08:55:48.240Z,99325.86
2018-01-16T08:58:15.185Z,99338.22
2018-01-16T09:00:41.925Z,99341.44
2018-01-16T09:03:08.723Z,99351.08
2018-01-16T09:05:36.094Z,99363.38
2018-01-16T09:08:02.907Z,99374.08
2018-01-16T09:10:30.315Z,99384.53
2018-01-16T09:12:57.123Z,99380.82
2018-01-16T09:15:23.834Z,99370.44
2018-01-16T09:17:50.812Z,99367.56
2018-01-16T09:20:17.525Z,99370.31
2018-01-16T09:22:44.277Z,99385.30
2018-01-16T09:25:11.008Z,99393.68
2018-01-16T09:27:37.763Z,99393.84
2018-01-16T09:30:04.536Z,99401.04
2018-01-16T09:32:31.407Z,99411.91
2018-01-16T09:34:58.996Z,99426.66
2018-01-16T09:37:25.704Z,99430.64
2018-01-16T09:39:53.168Z,99418.54
2018-01-16T09:42:19.967Z,99405.20
2018-01-16T09:44:46.640Z,99402.38
2018-01-16T09:47:13.340Z,99402.38
2018-01-16T09:49:40.211Z,99411.83
2018-01-16T09:52:06.871Z,99389.55
2018-01-16T09:54:33.658Z,99395.57
2018-01-16T09:57:00.372Z,99405.87
2018-01-16T09:59:27.228Z,99410.16
2018-01-16T10:01:54.051Z,99421.53
2018-01-16T10:04:20.864Z,99431.45
2018-01-16T10:06:47.544Z,99432.03
2018-01-16T10:09:14.292Z,99433.20
2018-01-16T10:11:41.039Z,99434.19
2018-01-16T10:14:08.120Z,99442.31
2018-01-16T10:16:35.002Z,99444.41
2018-01-16T10:19:01.886Z,99443.47
2018-01-16T10:21:28.555Z,99445.81
2018-01-16T10:23:55.271Z,99452.02
2018-01-16T10:26:22.056Z,99447.95
2018-01-16T10:31:22.522Z,99456.25
2018-01-16T10:33:49.932Z,99443.47
2018-01-16T10:36:17.724Z,99448.22
2018-01-16T10:38:44.801Z,99452.36
2018-01-16T10:41:12.381Z,99458.49
2018-01-16T10:43:39.072Z,99462.39
2018-01-16T10:46:05.903Z,99457.59
2018-01-16T10:48:32.589Z,99450.36
2018-01-16T10:50:59.407Z,99457.09
2018-01-16T10:53:26.044Z,99463.16
2018-01-16T10:55:52.793Z,99458.66
2018-01-16T10:58:19.427Z,99462.14
2018-01-16T11:00:46.079Z,99462.22
2018-01-16T11:03:12.744Z,99462.56
2018-01-16T11:05:39.571Z,99471.94
2018-01-16T11:08:06.262Z,99462.73
2018-01-16T11:10:33.624Z,99475.14
2018-01-16T11:13:01.036Z,99472.75
2018-01-16T11:15:27.684Z,99472.75
2018-01-16T11:17:54.423Z,99475.31
2018-01-16T11:20:21.263Z,99466.80
2018-01-16T11:22:48.119Z,99473.69
2018-01-16T11:25:14.967Z,99469.11
2018-01-16T11:27:41.611Z,99476.39
2018-01-16T11:30:08.257Z,99469.53
2018-01-16T11:32:34.972Z,99466.38
2018-01-16T11:35:01.745Z,99457.90
2018-01-16T11:37:28.497Z,99473.68
2018-01-16T11:39:55.220Z,99462.64
2018-01-16T11:42:21.984Z,99456.00
2018-01-16T11:44:48.620Z,99456.50
2018-01-16T11:47:15.377Z,99452.73
2018-01-16T11:49:42.138Z,99454.06
2018-01-16T11:52:08.732Z,99443.05
2018-01-16T11:54:35.422Z,99448.02
2018-01-16T11:57:03.787Z,99453.91
2018-01-16T11:59:30.499Z,99450.08
2018-01-16T12:01:57.208Z,99467.09
2018-01-16T12:04:23.843Z,99462.01
2018-01-16T12:06:50.493Z,99455.28
2018-01-16T12:09:17.309Z,99450.59
2018-01-16T12:11:44.252Z,99467.09
2018-01-16T12:14:11.008Z,99463.59
2018-01-16T12:16:37.667Z,99460.63
2018-01-16T12:19:04.495Z,99468.19
2018-01-16T12:21:31.146Z,99472.25
2018-01-16T12:23:57.920Z,99466.43
2018-01-16T12:26:24.693Z,99463.78
2018-01-16T12:28:51.558Z,99466.01
2018-01-16T12:31:18.328Z,99452.81
2018-01-16T12:33:45.068Z,99464.28
2018-01-16T12:36:11.826Z,99453.66
2018-01-16T12:38:38.464Z,99478.97
2018-01-16T12:41:05.199Z,99469.89
2018-01-16T12:43:31.958Z,99479.61
2018-01-16T12:45:58.605Z,99483.17
2018-01-16T12:48:25.458Z,99481.45
2018-01-16T12:50:52.292Z,99483.85
2018-01-16T12:53:18.916Z,99490.06
2018-01-16T12:55:45.589Z,99478.54
2018-01-16T12:58:12.279Z,99492.06
2018-01-16T13:00:39.721Z,99479.70
2018-01-16T13:03:07.154Z,99486.67
2018-01-16T13:05:33.893Z,99474.98
2018-01-16T13:08:00.637Z,99464.29
2018-01-16T13:10:27.694Z,99478.29
2018-01-16T13:12:54.543Z,99467.42
2018-01-16T13:15:21.185Z,99472.25
2018-01-16T13:17:47.764Z,99468.58
2018-01-16T13:20:15.285Z,99475.17
2018-01-16T13:22:41.936Z,99467.68
2018-01-16T13:25:08.683Z,99467.12
2018-01-16T13:27:35.429Z,99461.95
2018-01-16T13:30:02.174Z,99470.77
2018-01-16T13:32:29.016Z,99472.91
2018-01-16T13:34:55.768Z,99469.77
2018-01-16T13:37:22.615Z,99472.81
2018-01-16T13:39:49.267Z,99473.06
2018-01-16T13:42:15.985Z,99466.86
2018-01-16T13:44:42.655Z,99477.39
2018-01-16T13:47:09.394Z,99460.70
2018-01-16T13:49:36.039Z,99475.89
2018-01-16T13:52:02.779Z,99476.80
2018-01-16T13:54:29.439Z,99477.22
2018-01-16T13:56:56.181Z,99482.45
2018-01-16T13:59:22.926Z,99480.30
2018-01-16T14:01:49.664Z,99479.06
2018-01-16T14:04:16.423Z,99482.53
2018-01-16T14:06:43.169Z,99475.22
2018-01-16T14:09:09.900Z,99476.80
2018-01-16T14:11:36.553Z,99478.80
2018-01-16T14:14:03.273Z,99478.30
2018-01-16T14:16:30.040Z,99486.16
2018-01-16T14:18:56.793Z,99481.02
2018-01-16T14:21:23.556Z,99492.07
2018-01-16T14:23:50.389Z,99493.48
2018-01-16T14:26:17.226Z,99497.47
2018-01-16T14:28:43.972Z,99498.72
2018-01-16T14:31:10.636Z,99507.16
2018-01-16T14:33:37.267Z,99514.72
2018-01-16T14:36:04.016Z,99519.34
2018-01-16T14:38:30.934Z,99502.44
2018-01-16T14:40:57.733Z,99502.52
2018-01-16T14:43:25.346Z,99508.98
2018-01-16T14:45:52.124Z,99511.39
2018-01-16T14:48:18.916Z,99512.88
2018-01-16T14:50:46.106Z,99512.63
2018-01-16T14:53:12.874Z,99502.36
2018-01-16T14:55:39.720Z,99506.93
2018-01-16T14:58:06.462Z,99503.09
2018-01-16T15:00:33.212Z,99505.43
2018-01-16T15:03:01.394Z,99514.72
2018-01-16T15:05:28.228Z,99516.43
2018-01-16T15:07:54.984Z,99518.35
2018-01-16T15:10:21.928Z,99522.76
2018-01-16T15:12:48.792Z,99533.77
2018-01-16T15:15:15.429Z,99516.05
2018-01-16T15:17:43.658Z,99522.42
2018-01-16T15:20:10.338Z,99522.67
2018-01-16T15:22:36.975Z,99522.50
2018-01-16T15:25:03.737Z,99528.97
2018-01-16T15:27:30.684Z,99528.37
2018-01-16T15:29:57.438Z,99528.45
2018-01-16T15:32:24.275Z,99529.95
2018-01-16T15:34:51.128Z,99516.59
2018-01-16T15:37:17.756Z,99521.51
2018-01-16T15:39:44.412Z,99528.73
2018-01-16T15:42:11.234Z,99527.91
2018-01-16T15:44:38.005Z,99527.73
2018-01-16T15:47:04.596Z,99526.14
2018-01-16T15:49:31.297Z,99521.34
2018-01-16T15:51:58.045Z,99522.07
2018-01-16T15:54:24.678Z,99520.73
2018-01-16T15:56:51.314Z,99532.42
2018-01-16T15:59:18.080Z,99524.31
2018-01-16T16:01:44.909Z,99519.47
2018-01-16T16:04:11.669Z,99519.98
2018-01-16T16:06:38.518Z,99514.88
2018-01-16T16:09:05.352Z,99509.33
2018-01-16T16:11:32.096Z,99517.84
2018-01-16T16:13:59.155Z,99520.92
2018-01-16T16:16:26.002Z,99519.17
2018-01-16T16:18:52.728Z,99519.69
2018-01-16T16:21:19.401Z,99508.48
2018-01-16T16:23:46.024Z,99517.84
2018-01-16T16:26:12.958Z,99509.89
2018-01-16T16:28:39.724Z,99510.82
2018-01-16T16:31:06.355Z,99514.80
2018-01-16T16:33:32.985Z,99509.05
2018-01-16T16:35:59.608Z,99505.74
2018-01-16T16:38:27.136Z,99516.42
2018-01-16T16:40:53.768Z,99517.44
2018-01-16T16:43:20.370Z,99522.40
2018-01-16T16:45:47.248Z,99521.58
2018-01-16T16:48:13.997Z,99517.44
2018-01-16T16:50:40.592Z,99517.02
2018-01-16T16:53:07.969Z,99520.39
2018-01-16T16:55:34.568Z,99515.78
2018-01-16T16:58:01.461Z,99507.05
2018-01-16T17:00:28.076Z,99511.80
2018-01-16T17:02:55.413Z,99512.70
2018-01-16T17:05:22.186Z,99518.59
2018-01-16T17:07:49.599Z,99519.08
2018-01-16T17:10:16.322Z,99514.09
2018-01-16T17:12:42.987Z,99508.77
2018-01-16T17:15:09.633Z,99498.37
2018-01-16T17:17:36.332Z,99495.52
2018-01-16T17:20:03.732Z,99498.20
2018-01-16T17:22:30.353Z,99487.97
2018-01-16T17:24:57.129Z,99491.19
2018-01-16T17:27:23.892Z,99485.85
2018-01-16T17:29:50.691Z,99488.88
2018-01-16T17:32:17.585Z,99479.12
2018-01-16T17:34:44.257Z,99480.16
2018-01-16T17:37:11.650Z,99478.34
2018-01-16T17:39:38.302Z,99469.35
2018-01-16T17:42:04.907Z,99468.57
2018-01-16T17:44:32.427Z,99461.90
2018-01-16T17:46:59.032Z,99465.34
2018-01-16T17:49:25.614Z,99471.39
2018-01-16T17:51:52.375Z,99469.73
2018-01-16T17:54:19.065Z,99470.09
2018-01-16T17:56:45.648Z,99467.05
2018-01-16T17:59:12.614Z,99465.48
2018-01-16T18:01:39.289Z,99466.81
2018-01-16T18:04:06.679Z,99468.47
2018-01-16T18:06:33.356Z,99469.05
2018-01-16T18:08:59.981Z,99471.91
2018-01-16T18:11:26.668Z,99461.34
2018-01-16T18:13:54.033Z,99457.02
2018-01-16T18:16:21.545Z,99458.92
2018-01-16T18:18:48.389Z,99451.75
2018-01-16T18:21:15.157Z,99457.88
2018-01-16T18:23:41.795Z,99455.38
2018-01-16T18:26:08.432Z,99459.42
2018-01-16T18:28:35.297Z,99457.56
2018-01-16T18:31:01.908Z,99449.62
2018-01-16T18:33:28.653Z,99454.84
2018-01-16T18:35:55.460Z,99458.03
2018-01-16T18:38:22.845Z,99457.45
2018-01-16T18:40:49.499Z,99459.56
2018-01-16T18:43:16.383Z,99452.83
2018-01-16T18:45:43.212Z,99457.59
2018-01-16T18:48:09.861Z,99455.31
2018-01-16T18:50:36.630Z,99449.56
2018-01-16T18:53:03.352Z,99453.55
2018-01-16T18:55:30.100Z,99436.14
2018-01-16T18:57:56.994Z,99429.19
2018-01-16T19:00:23.648Z,99432.50
2018-01-16T19:02:50.339Z,99436.36
2018-01-16T19:05:17.106Z,99440.62
2018-01-16T19:07:43.734Z,99439.77
2018-01-16T19:10:11.101Z,99429.52
2018-01-16T19:12:38.157Z,99424.11
2018-01-16T19:15:04.913Z,99428.20
2018-01-16T19:17:31.736Z,99438.34
2018-01-16T19:19:58.475Z,99432.55
2018-01-16T19:22:25.339Z,99429.35
2018-01-16T19:24:52.260Z,99430.88
2018-01-16T19:27:19.230Z,99426.13
2018-01-16T19:29:46.021Z,99430.27
2018-01-16T19:32:13.657Z,99421.84
2018-01-16T19:34:40.405Z,99416.92
2018-01-16T19:37:08.584Z,99409.92
2018-01-16T19:39:35.315Z,99406.25
2018-01-16T19:42:01.972Z,99408.88
2018-01-16T19:44:28.812Z,99412.95
2018-01-16T19:46:55.656Z,99417.80
2018-01-16T19:49:22.318Z,99405.43
2018-01-16T19:51:48.928Z,99413.92
2018-01-16T19:54:15.780Z,99401.42
2018-01-16T19:56:42.447Z,99391.44
2018-01-16T19:59:09.266Z,99391.41
2018-01-16T20:01:35.922Z,99391.05
2018-01-16T20:04:02.681Z,99391.96
2018-01-16T20:06:29.412Z,99388.22
2018-01-16T20:08:56.378Z,99388.58
2018-01-16T20:11:23.027Z,99382.91
2018-01-16T20:13:49.837Z,99378.67
2018-01-16T20:16:16.606Z,99365.71
2018-01-16T20:18:43.218Z,99373.75
2018-01-16T20:21:09.881Z,99360.40
2018-01-16T20:23:36.496Z,99353.13
2018-01-16T20:26:03.198Z,99356.45
2018-01-16T20:28:29.983Z,99360.66
2018-01-16T20:31:34.513Z,99368.86
2018-01-16T20:34:01.392Z,99367.35
2018-01-16T20:36:28.147Z,99371.92
2018-01-16T20:38:54.849Z,99363.94
2018-01-16T20:41:21.640Z,99360.23
2018-01-16T20:43:48.272Z,99357.77
2018-01-16T20:46:15.034Z,99357.95
2018-01-16T20:48:42.582Z,99365.38
2018-01-16T20:51:09.283Z,99362.35
2018-01-16T20:53:36.085Z,99361.31
2018-01-16T20:56:02.934Z,99365.02
2018-01-16T20:58:29.672Z,99358.31
2018-01-16T21:00:56.409Z,99364.50
2018-01-16T21:03:23.368Z,99355.75
2018-01-16T21:05:50.242Z,99359.58
2018-01-16T21:08:17.685Z,99351.97
2018-01-16T21:10:44.411Z,99358.05
2018-01-16T21:13:11.157Z,99344.78
2018-01-16T21:15:37.920Z,99347.96
2018-01-16T21:18:04.653Z,99347.57
2018-01-16T21:20:31.403Z,99351.99
2018-01-16T21:22:58.093Z,99345.47
2018-01-16T21:25:25.610Z,99341.54
2018-01-16T21:27:52.371Z,99343.05
2018-01-16T21:30:19.121Z,99339.00
2018-01-16T21:32:46.507Z,99337.80
2018-01-16T21:35:13.978Z,99329.08
2018-01-16T21:37:40.675Z,99327.31
2018-01-16T21:40:07.322Z,99324.31
2018-01-16T21:42:33.948Z,99321.86
2018-01-16T21:45:00.570Z,99315.92
2018-01-16T21:47:27.168Z,99317.93
2018-01-16T21:49:53.900Z,99312.30
2018-01-16T21:52:20.732Z,99309.67
2018-01-16T21:54:47.380Z,99307.92
2018-01-16T21:57:14.034Z,99304.31
2018-01-16T21:59:40.757Z,99306.05
2018-01-16T22:02:07.512Z,99304.85
2018-01-16T22:04:34.365Z,99299.45
2018-01-16T22:07:01.114Z,99304.78
2018-01-16T22:09:27.764Z,99296.33
2018-01-16T22:11:54.366Z,99309.34
2018-01-16T22:14:21.139Z,99307.50
2018-01-16T22:16:47.759Z,99299.80
2018-01-16T22:19:14.524Z,99293.27
2018-01-16T22:21:41.173Z,99295.71
2018-01-16T22:24:07.841Z,99296.77
2018-01-16T22:26:34.575Z,99272.70
2018-01-16T22:29:01.324Z,99274.46
2018-01-16T22:31:27.952Z,99276.28
2018-01-16T22:33:54.700Z,99282.34
2018-01-16T22:36:21.642Z,99289.66
2018-01-16T22:38:48.395Z,99288.39
2018-01-16T22:41:17.108Z,99290.20
2018-01-16T22:43:43.828Z,99280.60
2018-01-16T22:46:11.384Z,99285.78
2018-01-16T22:48:38.091Z,99289.86
2018-01-16T22:51:04.708Z,99275.38
2018-01-16T22:53:31.868Z,99284.11
2018-01-16T22:55:58.564Z,99294.97
2018-01-16T22:58:25.225Z,99295.44
2018-01-16T23:00:51.873Z,99299.80
2018-01-16T23:03:18.496Z,99287.43
2018-01-16T23:05:45.139Z,99290.03
2018-01-16T23:08:11.736Z,99283.00
2018-01-16T23:10:39.371Z,99285.55
2018-01-16T23:13:06.078Z,99290.13
2018-01-16T23:15:32.850Z,99278.45
2018-01-16T23:17:59.605Z,99275.70
2018-01-16T23:20:26.249Z,99269.95
2018-01-16T23:22:52.891Z,99275.91
2018-01-16T23:25:19.627Z,99269.97
2018-01-16T23:27:46.278Z,99268.22
2018-01-16T23:30:13.125Z,99272.08
2018-01-16T23:32:39.764Z,99290.22
2018-01-16T23:35:06.512Z,99277.20
2018-01-16T23:37:33.154Z,99275.06
2018-01-16T23:39:59.808Z,99278.80
2018-01-16T23:42:26.536Z,99285.88
2018-01-16T23:44:53.287Z,99279.23
2018-01-16T23:47:20.017Z,99275.13
2018-01-16T23:49:46.788Z,99280.69
2018-01-16T23:52:13.520Z,99287.59
2018-01-16T23:54:40.382Z,99289.50
2018-01-16T23:57:07.223Z,99282.04
2018-01-16T23:59:33.772Z,99278.34
